Time;durP1;ratioP1;P1;durP2;ratioP2;P2;SDS_P1;SDS_P2;PMS_P1;PMS_P2;Temp;Humidity;BMP_temperature;BMP_pressure;BME280_temperature;BME280_humidity;BME280_pressure;Samples;Min_cycle;Max_cycle;Signal;HPM_P1;HPM_P2
2022/11/28 00:00:54;;;;;;;;;;;;;;;21.37;37.97;95677.00;6125220;19;1775;-62
2022/11/28 00:03:00;;;;;;;;;;;;;;;21.36;37.78;95675.38;6122813;19;2155;-62
2022/11/28 00:05:04;;;;;;;;;;;;;;;21.36;38.22;95680.72;6098493;19;1351;-63
2022/11/28 00:07:07;;;;;;;;;;;;;;;21.40;38.83;95688.16;6123090;19;2104;-63
2022/11/28 00:09:10;;;;;;;;;;;;;;;21.33;38.81;95678.44;6122455;19;1832;-63
2022/11/28 00:11:15;;;;;;;;;;;;;;;21.32;38.73;95685.66;6125004;19;2062;-64
2022/11/28 00:13:18;;;;;;;;;;;;;;;21.33;38.38;95681.13;6123100;19;1926;-63
2022/11/28 00:15:21;;;;;;;;;;;;;;;21.34;39.01;95675.59;6123935;19;1920;-63
2022/11/28 00:17:25;;;;;;;;;;;;;;;21.41;38.24;95676.41;6097108;19;2031;-64
2022/11/28 00:19:31;;;;;;;;;;;;;;;21.42;38.53;95671.88;6121283;19;1842;-63
2022/11/28 00:21:35;;;;;;;;;;;;;;;21.40;38.42;95673.97;6124168;19;2093;-63
2022/11/28 00:23:38;;;;;;;;;;;;;;;21.39;38.69;95677.63;6123593;19;2009;-63
2022/11/28 00:25:42;;;;;;;;;;;;;;;21.40;38.23;95676.63;6124371;19;2096;-63
2022/11/28 00:27:45;;;;;;;;;;;;;;;21.38;38.47;95678.69;6100563;19;2104;-62
2022/11/28 00:29:49;;;;;;;;;;;;;;;21.40;38.18;95671.28;6124085;19;1926;-63
2022/11/28 00:31:52;;;;;;;;;;;;;;;21.39;38.19;95675.78;6120440;19;1910;-63
2022/11/28 00:33:56;;;;;;;;;;;;;;;21.38;38.36;95673.31;6123128;19;1917;-63
2022/11/28 00:36:03;;;;;;;;;;;;;;;21.40;38.48;95673.97;6123072;19;1312;-63
2022/11/28 00:38:07;;;;;;;;;;;;;;;21.40;38.18;95676.63;6122950;19;2104;-63
2022/11/28 00:40:11;;;;;;;;;;;;;;;21.36;38.41;95670.84;6095986;19;1853;-63
2022/11/28 00:42:15;;;;;;;;;;;;;;;21.38;38.34;95670.66;6125997;19;1921;-63
2022/11/28 00:44:18;;;;;;;;;;;;;;;21.38;38.40;95674.16;6123972;19;1926;-63
2022/11/28 00:46:22;;;;;;;;;;;;;;;21.36;38.69;95675.38;6122334;19;970;-63
2022/11/28 00:48:26;;;;;;;;;;;;;;;21.37;38.65;95671.66;6125990;19;1895;-63
2022/11/28 00:50:29;;;;;;;;;;;;;;;21.38;38.85;95676.00;6109787;19;1192;-63
2022/11/28 00:52:36;;;;;;;;;;;;;;;21.35;38.65;95676.41;6110957;19;2089;-63
2022/11/28 00:54:39;;;;;;;;;;;;;;;21.35;38.49;95673.72;6120193;19;1936;-63
2022/11/28 00:56:43;;;;;;;;;;;;;;;21.35;38.66;95666.53;6122955;19;2092;-63
2022/11/28 00:58:46;;;;;;;;;;;;;;;21.37;38.59;95672.50;6123117;19;2088;-63
2022/11/28 01:00:49;;;;;;;;;;;;;;;21.35;38.37;95677.22;6120320;19;1861;-63
2022/11/28 01:02:53;;;;;;;;;;;;;;;21.33;39.04;95673.09;6095444;19;1708;-64
2022/11/28 01:04:56;;;;;;;;;;;;;;;21.37;38.61;95674.34;6120598;19;1045;-64
2022/11/28 01:07:00;;;;;;;;;;;;;;;21.35;38.84;95673.72;6120838;19;1940;-64
2022/11/28 01:09:07;;;;;;;;;;;;;;;21.34;38.37;95672.06;6121356;19;2144;-64
2022/11/28 01:11:13;;;;;;;;;;;;;;;21.36;38.52;95664.69;6120310;19;1517;-64
2022/11/28 01:13:16;;;;;;;;;;;;;;;21.36;38.49;95664.69;6113129;19;2119;-64
2022/11/28 01:15:19;;;;;;;;;;;;;;;21.33;38.59;95662.41;6107859;19;1663;-64
2022/11/28 01:17:22;;;;;;;;;;;;;;;21.34;38.67;95666.72;6121535;19;1929;-64
2022/11/28 01:19:26;;;;;;;;;;;;;;;21.34;38.35;95661.38;6124886;19;1872;-64
2022/11/28 01:21:29;;;;;;;;;;;;;;;21.38;38.31;95662.63;6122743;19;2099;-64
2022/11/28 01:23:33;;;;;;;;;;;;;;;21.34;38.37;95662.22;6122288;19;1660;-65
2022/11/28 01:25:39;;;;;;;;;;;;;;;21.35;38.37;95660.38;6094425;19;1183;-63
2022/11/28 01:27:42;;;;;;;;;;;;;;;21.34;38.24;95661.38;6124247;19;2125;-63
2022/11/28 01:29:46;;;;;;;;;;;;;;;21.36;38.64;95660.16;6121752;19;1949;-62
2022/11/28 01:31:49;;;;;;;;;;;;;;;21.33;38.74;95657.88;6120329;19;1642;-62
2022/11/28 01:33:53;;;;;;;;;;;;;;;21.32;38.56;95658.91;6119700;19;1046;-63
2022/11/28 01:35:57;;;;;;;;;;;;;;;21.35;38.35;95657.69;6122682;19;1908;-64
2022/11/28 01:38:00;;;;;;;;;;;;;;;21.33;38.23;95659.72;6094042;19;2112;-64
2022/11/28 01:40:04;;;;;;;;;;;;;;;21.33;38.74;95655.19;6121881;19;2110;-64
2022/11/28 01:42:13;;;;;;;;;;;;;;;21.33;38.63;95649.03;6121958;19;2114;-63
2022/11/28 01:44:31;;;;;;;;;;;;;;;21.32;38.56;95650.91;6119965;19;1924;-63
2022/11/28 01:46:35;;;;;;;;;;;;;;;21.31;38.81;95643.88;6118523;19;2006;-64
2022/11/28 01:48:41;;;;;;;;;;;;;;;21.34;38.60;95648.00;6097889;19;2407;-64
2022/11/28 01:50:48;;;;;;;;;;;;;;;21.32;38.82;95642.06;6120767;19;2031;-64
2022/11/28 01:52:54;;;;;;;;;;;;;;;21.32;38.54;95642.06;6119168;19;2094;-64
2022/11/28 01:55:00;;;;;;;;;;;;;;;21.37;38.83;95642.25;6121548;19;2129;-62
2022/11/28 01:57:04;;;;;;;;;;;;;;;21.34;38.54;95645.31;6119525;19;2093;-63
2022/11/28 01:59:11;;;;;;;;;;;;;;;21.34;38.73;95635.50;6121274;19;1678;-63
2022/11/28 02:01:15;;;;;;;;;;;;;;;21.35;38.94;95638.97;6098321;19;2125;-63
2022/11/28 02:03:20;;;;;;;;;;;;;;;21.29;38.87;95637.13;6121059;19;1938;-62
2022/11/28 02:05:24;;;;;;;;;;;;;;;21.32;38.88;95639.38;6123471;19;1994;-63
2022/11/28 02:07:28;;;;;;;;;;;;;;;21.35;38.67;95638.97;6121790;19;2089;-63
2022/11/28 02:09:31;;;;;;;;;;;;;;;21.35;38.92;95633.63;6121624;19;1922;-63
2022/11/28 02:11:52;;;;;;;;;;;;;;;21.34;38.72;95637.31;6095501;19;1135;-64
2022/11/28 02:13:57;;;;;;;;;;;;;;;21.28;39.49;95636.25;6120083;19;2038;-64
2022/11/28 02:16:10;;;;;;;;;;;;;;;21.29;39.09;95635.25;6122935;19;1732;-64
2022/11/28 02:18:19;;;;;;;;;;;;;;;21.34;38.65;95634.63;6120515;19;1871;-64
2022/11/28 02:20:43;;;;;;;;;;;;;;;21.34;38.79;95630.13;6123384;19;2658;-64
2022/11/28 02:22:54;;;;;;;;;;;;;;;21.36;38.85;95625.41;6110249;19;1928;-64
2022/11/28 02:25:08;;;;;;;;;;;;;;;21.36;38.82;95629.94;6111290;19;1711;-64
2022/11/28 02:27:22;;;;;;;;;;;;;;;21.36;38.94;95629.94;6121888;19;1916;-64
2022/11/28 02:29:40;;;;;;;;;;;;;;;21.34;38.90;95623.94;6119703;19;1909;-63
2022/11/28 02:32:12;;;;;;;;;;;;;;;21.39;39.39;95626.84;6120383;19;2390;-63
2022/11/28 02:34:17;;;;;;;;;;;;;;;21.43;38.98;95633.44;6109673;19;2090;-68
2022/11/28 02:36:22;;;;;;;;;;;;;;;21.44;39.03;95629.75;6107479;19;1756;-63
2022/11/28 02:38:31;;;;;;;;;;;;;;;21.38;39.41;95619.84;6121264;19;1908;-63
2022/11/28 02:40:39;;;;;;;;;;;;;;;21.37;39.31;95623.53;6121865;19;1945;-63
2022/11/28 02:42:47;;;;;;;;;;;;;;;21.37;39.56;95618.19;6119897;19;1928;-63
2022/11/28 02:44:54;;;;;;;;;;;;;;;21.41;39.38;95624.81;6120841;19;2282;-63
2022/11/28 02:46:59;;;;;;;;;;;;;;;21.41;39.00;95622.13;6093728;19;1934;-63
2022/11/28 02:49:07;;;;;;;;;;;;;;;21.39;39.22;95622.31;6120213;19;1823;-63
2022/11/28 02:51:13;;;;;;;;;;;;;;;21.37;39.13;95619.03;6119898;19;2113;-60
2022/11/28 02:53:20;;;;;;;;;;;;;;;21.35;39.32;95625.63;6120403;19;2256;-60
2022/11/28 02:55:24;;;;;;;;;;;;;;;21.36;39.09;95627.25;6120402;19;2062;-61
2022/11/28 02:57:31;;;;;;;;;;;;;;;21.33;38.84;95623.13;6106114;19;1693;-61
2022/11/28 02:59:47;;;;;;;;;;;;;;;21.37;39.05;95629.72;6112292;19;1910;-61
2022/11/28 03:01:50;;;;;;;;;;;;;;;21.38;38.81;95625.22;6118798;19;1940;-61
2022/11/28 03:04:03;;;;;;;;;;;;;;;21.38;38.63;95627.88;6120702;19;2090;-61
2022/11/28 03:06:14;;;;;;;;;;;;;;;21.37;38.73;95623.53;6121414;19;1973;-61
2022/11/28 03:08:26;;;;;;;;;;;;;;;21.38;38.56;95631.38;6120346;19;1880;-61
2022/11/28 03:10:35;;;;;;;;;;;;;;;21.39;38.81;95629.50;6103388;19;2083;-61
2022/11/28 03:12:44;;;;;;;;;;;;;;;21.37;38.75;95628.88;6119352;19;1921;-61
2022/11/28 03:14:51;;;;;;;;;;;;;;;21.38;38.60;95626.03;6118646;19;2268;-61
2022/11/28 03:16:58;;;;;;;;;;;;;;;21.37;38.63;95631.56;6118033;19;2135;-61
2022/11/28 03:19:06;;;;;;;;;;;;;;;21.36;38.78;95627.25;6118355;19;1862;-62
2022/11/28 03:21:14;;;;;;;;;;;;;;;21.37;38.63;95627.06;6090609;19;2107;-61
2022/11/28 03:23:18;;;;;;;;;;;;;;;21.37;38.92;95626.22;6118269;19;1865;-61
2022/11/28 03:25:26;;;;;;;;;;;;;;;21.35;38.69;95631.78;6118080;19;1009;-61
2022/11/28 03:27:34;;;;;;;;;;;;;;;21.38;38.74;95635.91;6118317;19;2146;-61
2022/11/28 03:29:41;;;;;;;;;;;;;;;21.36;38.54;95629.94;6119707;19;1980;-61
2022/11/28 03:31:47;;;;;;;;;;;;;;;21.35;39.12;95633.63;6104509;19;1221;-61
2022/11/28 03:33:53;;;;;;;;;;;;;;;21.35;38.76;95628.28;6106282;19;2035;-63
2022/11/28 03:35:59;;;;;;;;;;;;;;;21.36;38.81;95637.94;6118334;19;2033;-62
2022/11/28 03:38:08;;;;;;;;;;;;;;;21.36;39.10;95635.28;6118095;19;2131;-62
2022/11/28 03:40:14;;;;;;;;;;;;;;;21.39;39.05;95641.03;6117358;19;2086;-62
2022/11/28 03:42:19;;;;;;;;;;;;;;;21.37;38.76;95627.06;6117895;19;1935;-60
2022/11/28 03:44:26;;;;;;;;;;;;;;;21.36;38.79;95641.44;6092122;19;1916;-61
2022/11/28 03:46:36;;;;;;;;;;;;;;;21.36;39.25;95638.75;6117634;19;2097;-61
2022/11/28 03:48:41;;;;;;;;;;;;;;;21.41;38.92;95635.50;6117489;19;2200;-62
2022/11/28 03:50:47;;;;;;;;;;;;;;;21.37;38.93;95639.56;6117206;19;2161;-65
2022/11/28 03:52:53;;;;;;;;;;;;;;;21.43;38.62;95641.47;6120197;19;1626;-61
2022/11/28 03:55:01;;;;;;;;;;;;;;;21.52;38.49;95632.22;6105563;19;1696;-64
2022/11/28 03:57:09;;;;;;;;;;;;;;;21.49;38.75;95632.63;6104294;19;1914;-65
2022/11/28 03:59:15;;;;;;;;;;;;;;;21.42;38.39;95629.94;6117576;19;2102;-62
2022/11/28 04:01:27;;;;;;;;;;;;;;;21.45;38.47;95632.22;6117305;19;1989;-60
2022/11/28 04:03:37;;;;;;;;;;;;;;;21.48;38.59;95630.16;6117071;19;2072;-60
2022/11/28 04:05:45;;;;;;;;;;;;;;;21.45;38.45;95631.38;6116255;19;1917;-61
2022/11/28 04:07:53;;;;;;;;;;;;;;;21.21;37.38;95630.91;6090460;19;2070;-61
2022/11/28 04:10:02;;;;;;;;;;;;;;;19.65;34.40;95629.44;6116381;19;1949;-61
2022/11/28 04:12:09;;;;;;;;;;;;;;;18.44;34.26;95634.31;6118495;19;1937;-62
2022/11/28 04:14:16;;;;;;;;;;;;;;;17.92;34.39;95631.66;6119902;19;1928;-62
2022/11/28 04:16:21;;;;;;;;;;;;;;;17.60;34.08;95631.69;6125597;19;1904;-61
2022/11/28 04:18:26;;;;;;;;;;;;;;;17.54;33.27;95628.94;6098575;19;1333;-61
2022/11/28 04:20:34;;;;;;;;;;;;;;;17.35;32.76;95633.69;6120176;19;2072;-61
2022/11/28 04:22:40;;;;;;;;;;;;;;;17.24;32.69;95631.44;6124259;19;2116;-60
2022/11/28 04:24:46;;;;;;;;;;;;;;;17.12;33.09;95638.97;6121908;19;1944;-60
2022/11/28 04:26:55;;;;;;;;;;;;;;;16.90;32.82;95635.31;6121377;19;1132;-60
2022/11/28 04:28:59;;;;;;;;;;;;;;;16.84;32.57;95637.81;6123990;19;2087;-60
2022/11/28 04:31:04;;;;;;;;;;;;;;;16.74;32.65;95630.84;6101023;19;2169;-61
2022/11/28 04:33:09;;;;;;;;;;;;;;;16.68;32.51;95642.16;6126413;19;2079;-61
2022/11/28 04:35:14;;;;;;;;;;;;;;;16.59;32.19;95640.53;6120106;19;1701;-60
2022/11/28 04:37:18;;;;;;;;;;;;;;;16.40;32.25;95635.63;6124664;19;2036;-60
2022/11/28 04:39:24;;;;;;;;;;;;;;;16.44;32.33;95643.03;6124702;19;1625;-61
2022/11/28 04:41:30;;;;;;;;;;;;;;;16.49;32.45;95639.91;6095968;19;1988;-61
2022/11/28 04:43:37;;;;;;;;;;;;;;;16.69;32.60;95641.16;6120169;19;1964;-64
2022/11/28 04:45:43;;;;;;;;;;;;;;;18.02;33.83;95638.38;6126487;19;1692;-60
2022/11/28 04:47:47;;;;;;;;;;;;;;;18.87;33.01;95647.00;6121184;19;1038;-62
2022/11/28 04:49:50;;;;;;;;;;;;;;;19.41;32.95;95639.44;6122369;19;1894;-60
2022/11/28 04:51:58;;;;;;;;;;;;;;;19.73;32.50;95641.81;6122790;19;1816;-58
2022/11/28 04:54:02;;;;;;;;;;;;;;;19.91;32.59;95650.19;6095477;19;1988;-60
2022/11/28 04:56:09;;;;;;;;;;;;;;;20.00;32.73;95646.34;6121660;19;1986;-60
2022/11/28 04:58:16;;;;;;;;;;;;;;;20.10;32.77;95643.38;6120993;19;1957;-60
2022/11/28 05:00:22;;;;;;;;;;;;;;;20.16;32.88;95642.59;6117445;19;1902;-62
2022/11/28 05:02:29;;;;;;;;;;;;;;;20.24;32.48;95654.97;6118349;19;1845;-61
2022/11/28 05:04:32;;;;;;;;;;;;;;;20.20;32.58;95645.69;6093075;19;1951;-61
2022/11/28 05:06:37;;;;;;;;;;;;;;;20.19;32.79;95650.22;6120906;19;2179;-61
2022/11/28 05:08:41;;;;;;;;;;;;;;;20.40;32.69;95653.88;6118840;19;1717;-60
2022/11/28 05:10:44;;;;;;;;;;;;;;;20.50;32.88;95646.34;6120010;19;1540;-61
2022/11/28 05:12:47;;;;;;;;;;;;;;;20.64;32.41;95645.41;6120440;19;1852;-60
2022/11/28 05:14:51;;;;;;;;;;;;;;;20.75;32.19;95652.06;6123755;19;1894;-61
2022/11/28 05:16:55;;;;;;;;;;;;;;;20.83;32.17;95648.38;6095506;19;2213;-60
2022/11/28 05:19:01;;;;;;;;;;;;;;;20.94;32.52;95651.34;6121594;19;1790;-60
2022/11/28 05:21:06;;;;;;;;;;;;;;;21.04;32.19;95642.94;6122380;19;2074;-59
2022/11/28 05:23:10;;;;;;;;;;;;;;;21.04;32.59;95648.28;6118456;19;1057;-59
2022/11/28 05:25:13;;;;;;;;;;;;;;;21.13;32.25;95641.75;6117146;19;1070;-62
2022/11/28 05:27:16;;;;;;;;;;;;;;;21.17;32.43;95637.69;6107071;19;2078;-62
2022/11/28 05:29:20;;;;;;;;;;;;;;;21.15;32.12;95638.88;6107472;19;1912;-61
2022/11/28 05:31:23;;;;;;;;;;;;;;;21.19;32.29;95640.97;6120337;19;1052;-60
2022/11/28 05:33:26;;;;;;;;;;;;;;;21.19;32.22;95632.13;6120607;19;1157;-61
2022/11/28 05:35:32;;;;;;;;;;;;;;;21.14;32.34;95632.72;6119253;19;1036;-63
2022/11/28 05:37:35;;;;;;;;;;;;;;;21.14;32.59;95639.88;6121567;19;1128;-61
2022/11/28 05:39:39;;;;;;;;;;;;;;;21.07;32.47;95633.72;6093613;19;2130;-61
2022/11/28 05:41:42;;;;;;;;;;;;;;;21.05;32.10;95636.56;6120116;19;1857;-60
2022/11/28 05:43:45;;;;;;;;;;;;;;;21.06;32.39;95635.56;6121208;19;1037;-61
2022/11/28 05:45:49;;;;;;;;;;;;;;;21.07;32.68;95637.19;6119471;19;1887;-61
2022/11/28 05:47:52;;;;;;;;;;;;;;;21.05;32.26;95633.06;6119939;19;1038;-60
2022/11/28 05:49:55;;;;;;;;;;;;;;;21.05;32.76;95641.09;6105670;19;2112;-60
2022/11/28 05:52:01;;;;;;;;;;;;;;;21.02;32.75;95637.78;6108264;19;1933;-61
2022/11/28 05:54:05;;;;;;;;;;;;;;;21.05;32.46;95635.75;6119517;19;990;-61
2022/11/28 05:56:09;;;;;;;;;;;;;;;21.04;32.38;95631.44;6119423;19;1029;-62
2022/11/28 05:58:12;;;;;;;;;;;;;;;21.05;32.74;95639.25;6120489;19;1049;-61
2022/11/28 06:00:16;;;;;;;;;;;;;;;21.03;32.39;95630.63;6119449;19;966;-60
2022/11/28 06:02:19;;;;;;;;;;;;;;;21.08;32.42;95630.81;6093597;19;1986;-61
2022/11/28 06:04:22;;;;;;;;;;;;;;;21.13;32.31;95636.41;6117744;19;1136;-61
2022/11/28 06:06:26;;;;;;;;;;;;;;;21.10;32.56;95630.63;6120985;19;966;-60
2022/11/28 06:08:32;;;;;;;;;;;;;;;21.01;32.87;95633.47;6119314;19;768;-60
2022/11/28 06:10:36;;;;;;;;;;;;;;;21.12;32.49;95629.41;6119746;19;1409;-60
2022/11/28 06:12:39;;;;;;;;;;;;;;;21.10;33.39;95626.09;6103672;19;1648;-60
2022/11/28 06:14:42;;;;;;;;;;;;;;;21.08;33.63;95628.16;6105104;19;1395;-61
2022/11/28 06:16:45;;;;;;;;;;;;;;;21.11;33.93;95635.75;6120282;19;1013;-59
2022/11/28 06:18:49;;;;;;;;;;;;;;;21.12;33.46;95634.75;6119624;19;1037;-61
2022/11/28 06:20:53;;;;;;;;;;;;;;;21.16;33.47;95633.31;6118777;19;1025;-60
2022/11/28 06:22:56;;;;;;;;;;;;;;;21.04;33.71;95623.41;6119040;19;1846;-58
2022/11/28 06:25:02;;;;;;;;;;;;;;;21.04;33.51;95629.59;6091772;19;1435;-59
2022/11/28 06:27:05;;;;;;;;;;;;;;;21.08;33.72;95633.50;6117824;19;1137;-58
2022/11/28 06:29:09;;;;;;;;;;;;;;;21.17;33.97;95623.44;6118611;19;1066;-59
2022/11/28 06:31:12;;;;;;;;;;;;;;;21.05;33.95;95636.56;6118767;19;974;-58
2022/11/28 06:33:16;;;;;;;;;;;;;;;21.01;33.39;95625.47;6118680;19;1066;-58
2022/11/28 06:35:19;;;;;;;;;;;;;;;20.97;33.82;95629.56;6104401;19;1672;-58
2022/11/28 06:37:22;;;;;;;;;;;;;;;21.07;33.20;95631.84;6103955;19;2182;-58
2022/11/28 06:39:26;;;;;;;;;;;;;;;20.99;33.49;95629.34;6118445;19;990;-59
2022/11/28 06:41:32;;;;;;;;;;;;;;;20.89;33.46;95624.38;6117742;19;1833;-58
2022/11/28 06:43:35;;;;;;;;;;;;;;;20.91;33.45;95624.16;6118638;19;1040;-59
2022/11/28 06:45:39;;;;;;;;;;;;;;;20.89;33.62;95615.56;6120208;19;987;-59
2022/11/28 06:47:42;;;;;;;;;;;;;;;20.88;33.38;95620.03;6092809;19;2118;-58
2022/11/28 06:49:45;;;;;;;;;;;;;;;20.99;33.61;95627.50;6119158;19;967;-58
2022/11/28 06:51:48;;;;;;;;;;;;;;;20.94;34.04;95619.28;6119284;19;1292;-59
2022/11/28 06:53:52;;;;;;;;;;;;;;;20.99;33.66;95616.81;6118387;19;1281;-58
2022/11/28 06:55:55;;;;;;;;;;;;;;;20.99;34.06;95614.13;6119073;19;1009;-59
2022/11/28 06:58:01;;;;;;;;;;;;;;;21.01;33.74;95614.78;6105415;19;1034;-58
2022/11/28 07:00:05;;;;;;;;;;;;;;;21.01;34.05;95619.28;6106650;19;2102;-58
2022/11/28 07:02:09;;;;;;;;;;;;;;;20.99;33.97;95618.66;6117687;19;1879;-59
2022/11/28 07:04:12;;;;;;;;;;;;;;;21.02;34.20;95620.94;6118335;19;981;-58
2022/11/28 07:06:16;;;;;;;;;;;;;;;21.01;34.37;95624.63;6119325;19;1029;-58
2022/11/28 07:08:19;;;;;;;;;;;;;;;21.07;34.34;95626.50;6117666;19;1057;-58
2022/11/28 07:10:23;;;;;;;;;;;;;;;21.09;34.52;95621.78;6092283;19;1729;-59
2022/11/28 07:12:26;;;;;;;;;;;;;;;21.07;34.80;95618.50;6117944;19;1029;-59
2022/11/28 07:14:34;;;;;;;;;;;;;;;21.09;34.55;95618.31;6117289;19;990;-59
2022/11/28 07:16:37;;;;;;;;;;;;;;;21.05;34.91;95615.19;6118004;19;995;-60
2022/11/28 07:18:40;;;;;;;;;;;;;;;20.99;34.75;95618.66;6116454;19;1073;-59
2022/11/28 07:20:44;;;;;;;;;;;;;;;21.03;34.94;95627.94;6104543;19;1687;-60
2022/11/28 07:22:48;;;;;;;;;;;;;;;20.98;35.15;95617.03;6104192;19;2010;-59
2022/11/28 07:24:52;;;;;;;;;;;;;;;21.01;34.64;95614.78;6116786;19;1120;-59
2022/11/28 07:26:55;;;;;;;;;;;;;;;20.96;34.99;95616.41;6116877;19;1598;-59
2022/11/28 07:28:59;;;;;;;;;;;;;;;21.01;35.26;95619.28;6118988;19;1013;-60
2022/11/28 07:31:07;;;;;;;;;;;;;;;21.05;35.08;95625.88;6117336;19;979;-60
2022/11/28 07:33:10;;;;;;;;;;;;;;;21.05;35.20;95615.19;6090190;19;1411;-60
2022/11/28 07:35:13;;;;;;;;;;;;;;;21.04;35.37;95616.22;6116508;19;1082;-58
2022/11/28 07:37:17;;;;;;;;;;;;;;;21.00;35.21;95618.47;6117019;19;1144;-59
2022/11/28 07:39:20;;;;;;;;;;;;;;;21.00;35.28;95615.00;6117185;19;979;-58
2022/11/28 07:41:24;;;;;;;;;;;;;;;21.01;35.60;95616.63;6116055;19;1144;-59
2022/11/28 07:43:27;;;;;;;;;;;;;;;20.99;35.18;95616.81;6103506;19;2092;-59
2022/11/28 07:45:30;;;;;;;;;;;;;;;21.00;35.10;95628.34;6103417;19;1787;-59
2022/11/28 07:47:36;;;;;;;;;;;;;;;20.94;35.65;95616.59;6117949;19;1037;-61
2022/11/28 07:49:39;;;;;;;;;;;;;;;20.98;35.28;95619.69;6124379;19;1898;-60
2022/11/28 07:51:43;;;;;;;;;;;;;;;21.00;35.63;95615.81;6122026;19;1124;-60
2022/11/28 07:53:46;;;;;;;;;;;;;;;20.97;35.67;95618.03;6122004;19;875;-60
2022/11/28 07:55:50;;;;;;;;;;;;;;;20.98;35.64;95615.16;6094988;19;1355;-61
2022/11/28 07:57:53;;;;;;;;;;;;;;;20.90;35.34;95611.84;6121995;19;1027;-60
2022/11/28 07:59:56;;;;;;;;;;;;;;;20.91;35.43;95616.16;6122451;19;970;-60
2022/11/28 08:01:59;;;;;;;;;;;;;;;20.92;35.34;95615.97;6120726;19;1857;-59
2022/11/28 08:04:06;;;;;;;;;;;;;;;20.94;35.46;95611.25;6123751;19;1194;-60
2022/11/28 08:06:10;;;;;;;;;;;;;;;20.90;35.75;95614.53;6108324;19;2068;-59
2022/11/28 08:08:13;;;;;;;;;;;;;;;20.90;35.60;95611.84;6108452;19;1548;-60
2022/11/28 08:10:17;;;;;;;;;;;;;;;20.89;35.75;95618.22;6120969;19;1148;-60
2022/11/28 08:12:20;;;;;;;;;;;;;;;20.90;35.85;95614.53;6122051;19;975;-59
2022/11/28 08:14:23;;;;;;;;;;;;;;;20.87;35.99;95610.41;6121565;19;1132;-60
2022/11/28 08:16:27;;;;;;;;;;;;;;;20.88;35.98;95614.69;6123233;19;1029;-60
2022/11/28 08:18:31;;;;;;;;;;;;;;;20.86;35.97;95618.59;6094704;19;2099;-60
2022/11/28 08:20:37;;;;;;;;;;;;;;;20.87;35.52;95606.91;6121524;19;1231;-59
2022/11/28 08:22:40;;;;;;;;;;;;;;;20.92;35.57;95607.13;6121834;19;1837;-60
2022/11/28 08:24:43;;;;;;;;;;;;;;;20.95;35.52;95609.41;6120336;19;1062;-60
2022/11/28 08:26:47;;;;;;;;;;;;;;;20.96;35.49;95608.38;6121388;19;1048;-60
2022/11/28 08:28:50;;;;;;;;;;;;;;;21.01;35.54;95608.59;6108788;19;1218;-59
2022/11/28 08:30:54;;;;;;;;;;;;;;;21.09;35.45;95604.94;6110179;19;2251;-59
2022/11/28 08:32:58;;;;;;;;;;;;;;;21.18;35.18;95609.13;6120057;19;1134;-60
2022/11/28 08:35:01;;;;;;;;;;;;;;;21.27;35.34;95607.91;6121470;19;1864;-59
2022/11/28 08:37:07;;;;;;;;;;;;;;;21.34;34.67;95614.09;6120812;19;1052;-60
2022/11/28 08:39:10;;;;;;;;;;;;;;;21.39;35.05;95608.13;6120390;19;1128;-60
2022/11/28 08:41:14;;;;;;;;;;;;;;;21.44;34.69;95611.03;6096989;19;1680;-60
2022/11/28 08:43:18;;;;;;;;;;;;;;;21.44;34.46;95603.81;6121161;19;1841;-60
2022/11/28 08:45:21;;;;;;;;;;;;;;;21.44;34.40;95601.16;6120885;19;1054;-60
2022/11/28 08:47:24;;;;;;;;;;;;;;;21.47;34.45;95599.09;6121768;19;1049;-60
2022/11/28 08:49:27;;;;;;;;;;;;;;;21.49;34.12;95605.91;6120686;19;1058;-60
2022/11/28 08:51:31;;;;;;;;;;;;;;;21.47;34.62;95596.44;6107820;19;2043;-60
2022/11/28 08:53:37;;;;;;;;;;;;;;;21.44;34.87;95594.97;6107376;19;2113;-59
2022/11/28 08:55:43;;;;;;;;;;;;;;;21.48;34.67;95598.88;6120103;19;1913;-60
2022/11/28 08:57:46;;;;;;;;;;;;;;;21.51;34.66;95597.66;6120425;19;1045;-60
2022/11/28 08:59:49;;;;;;;;;;;;;;;21.49;35.02;95586.38;6121017;19;1022;-61
2022/11/28 09:01:53;;;;;;;;;;;;;;;21.46;34.83;95587.59;6119633;19;1557;-59
2022/11/28 09:03:57;;;;;;;;;;;;;;;21.43;34.70;95582.66;6094756;19;1961;-61
2022/11/28 09:06:02;;;;;;;;;;;;;;;21.35;34.40;95585.50;6121023;19;978;-60
2022/11/28 09:08:06;;;;;;;;;;;;;;;21.32;34.41;95583.25;6122789;19;1028;-60
2022/11/28 09:10:12;;;;;;;;;;;;;;;21.23;34.13;95580.75;6119926;19;975;-61
2022/11/28 09:12:15;;;;;;;;;;;;;;;21.23;34.03;95578.09;6120322;19;1125;-61
2022/11/28 09:14:19;;;;;;;;;;;;;;;21.25;33.65;95567.19;6108808;19;1979;-61
2022/11/28 09:16:22;;;;;;;;;;;;;;;21.34;33.99;95574.00;6106061;19;1987;-60
2022/11/28 09:18:25;;;;;;;;;;;;;;;21.35;34.26;95569.47;6120129;19;1066;-60
2022/11/28 09:20:29;;;;;;;;;;;;;;;21.31;34.16;95566.38;6120650;19;1049;-62
2022/11/28 09:22:32;;;;;;;;;;;;;;;21.24;34.07;95557.53;6120010;19;1868;-61
2022/11/28 09:24:35;;;;;;;;;;;;;;;21.26;34.13;95560.00;6119682;19;1020;-60
2022/11/28 09:26:41;;;;;;;;;;;;;;;21.19;34.17;95547.44;6095734;19;1632;-60
2022/11/28 09:28:45;;;;;;;;;;;;;;;21.19;33.76;95546.59;6120339;19;974;-61
2022/11/28 09:30:48;;;;;;;;;;;;;;;21.20;34.01;95542.94;6119122;19;1164;-61
2022/11/28 09:32:51;;;;;;;;;;;;;;;21.25;33.92;95534.28;6119819;19;1100;-61
2022/11/28 09:34:55;;;;;;;;;;;;;;;21.26;33.96;95530.59;6120221;19;1766;-61
2022/11/28 09:36:58;;;;;;;;;;;;;;;21.20;33.57;95533.06;6106879;19;1144;-61
2022/11/28 09:39:02;;;;;;;;;;;;;;;21.23;33.55;95532.66;6107457;19;2159;-60
2022/11/28 09:41:05;;;;;;;;;;;;;;;21.18;34.00;95529.75;6119520;19;1030;-61
2022/11/28 09:43:15;;;;;;;;;;;;;;;21.18;33.97;95527.09;6120572;19;1845;-61
2022/11/28 09:45:20;;;;;;;;;;;;;;;21.18;34.00;95532.44;6119739;19;1090;-61
2022/11/28 09:47:25;;;;;;;;;;;;;;;21.30;34.31;95529.16;6118283;19;1054;-61
2022/11/28 09:49:34;;;;;;;;;;;;;;;21.23;34.21;95521.97;6094899;19;2077;-61
2022/11/28 09:51:44;;;;;;;;;;;;;;;21.25;34.31;95513.72;6119663;19;1037;-62
2022/11/28 09:53:49;;;;;;;;;;;;;;;21.22;34.23;95514.94;6120684;19;974;-61
2022/11/28 09:55:56;;;;;;;;;;;;;;;21.22;34.37;95504.25;6119669;19;1545;-62
2022/11/28 09:58:00;;;;;;;;;;;;;;;21.23;34.21;95494.41;6119484;19;1029;-61
2022/11/28 10:00:06;;;;;;;;;;;;;;;21.20;34.79;95495.66;6096801;19;1291;-62
2022/11/28 10:02:22;;;;;;;;;;;;;;;21.21;34.50;95494.59;6118094;19;1788;-61
2022/11/28 10:04:29;;;;;;;;;;;;;;;21.19;35.01;95493.16;6119666;19;1853;-60
2022/11/28 10:06:38;;;;;;;;;;;;;;;21.20;34.84;95489.47;6119681;19;1021;-61
2022/11/28 10:08:48;;;;;;;;;;;;;;;21.28;34.74;95491.13;6118066;19;1121;-61
2022/11/28 10:10:58;;;;;;;;;;;;;;;21.28;34.64;95491.13;6106197;19;1202;-61
2022/11/28 10:13:04;;;;;;;;;;;;;;;21.30;35.01;95491.75;6107147;19;1891;-60
2022/11/28 10:15:23;;;;;;;;;;;;;;;21.30;34.97;95486.41;6118820;19;1077;-62
2022/11/28 10:17:35;;;;;;;;;;;;;;;21.28;35.15;95491.13;6118626;19;2440;-61
2022/11/28 10:19:42;;;;;;;;;;;;;;;21.30;34.66;95494.41;6118970;19;1144;-61
2022/11/28 10:21:49;;;;;;;;;;;;;;;21.28;34.94;95496.47;6120525;19;990;-60
2022/11/28 10:23:54;;;;;;;;;;;;;;;21.31;34.80;95502.22;6091788;19;1994;-60
2022/11/28 10:25:58;;;;;;;;;;;;;;;21.33;35.22;95494.81;6120456;19;954;-60
2022/11/28 10:28:02;;;;;;;;;;;;;;;21.34;35.09;95499.16;6120193;19;1481;-61
2022/11/28 10:30:08;;;;;;;;;;;;;;;21.38;35.49;95496.88;6118056;19;982;-61
2022/11/28 10:32:14;;;;;;;;;;;;;;;21.37;35.18;95487.19;6118591;19;1011;-60
2022/11/28 10:34:25;;;;;;;;;;;;;;;21.40;35.31;95479.63;6092808;19;1924;-61
2022/11/28 10:36:30;;;;;;;;;;;;;;;21.43;35.30;95473.03;6118473;19;1292;-60
2022/11/28 10:38:37;;;;;;;;;;;;;;;21.42;35.50;95482.06;6117918;19;958;-61
2022/11/28 10:40:44;;;;;;;;;;;;;;;21.39;35.57;95475.28;6118377;19;1152;-61
2022/11/28 10:42:51;;;;;;;;;;;;;;;21.39;35.49;95477.97;6118794;19;1623;-61
2022/11/28 10:45:03;;;;;;;;;;;;;;;21.40;35.33;95460.91;6106769;19;1199;-59
2022/11/28 10:47:09;;;;;;;;;;;;;;;21.39;34.90;95469.13;6105060;19;1361;-60
2022/11/28 10:49:22;;;;;;;;;;;;;;;21.41;35.16;95459.06;6118042;19;1062;-61
2022/11/28 10:51:35;;;;;;;;;;;;;;;21.33;35.34;95468.09;6118247;19;1299;-60
2022/11/28 10:53:42;;;;;;;;;;;;;;;21.32;35.18;95462.97;6117660;19;1623;-61
2022/11/28 10:55:53;;;;;;;;;;;;;;;21.36;35.55;95466.84;6118033;19;1058;-60
2022/11/28 10:58:00;;;;;;;;;;;;;;;21.32;35.57;95460.28;6091838;19;2146;-60
2022/11/28 11:00:07;;;;;;;;;;;;;;;21.31;35.48;95455.97;6117719;19;1244;-60
2022/11/28 11:02:23;;;;;;;;;;;;;;;21.29;35.40;95458.84;6117861;19;1340;-60